createdAt,value
2023-01-06T00:03:42.356Z,100679.23
2023-01-06T00:08:50.614Z,100687.04
2023-01-06T00:13:56.626Z,100690.27
2023-01-06T00:19:02.938Z,100700.14
2023-01-06T00:24:09.981Z,100708.88
2023-01-06T00:29:15.966Z,100714.42
2023-01-06T00:34:21.984Z,100728.83
2023-01-06T00:39:27.766Z,100733.12
2023-01-06T00:44:34.695Z,100746.14
2023-01-06T00:49:40.477Z,100762.38
2023-01-06T00:54:46.469Z,100777.83
2023-01-06T00:59:53.583Z,100782.98
2023-01-06T01:04:59.184Z,100785.89
2023-01-06T01:10:06.235Z,100793.69
2023-01-06T01:15:12.717Z,100789.52
2023-01-06T01:20:19.534Z,100800.52
2023-01-06T01:25:25.219Z,100817.69
2023-01-06T01:30:31.084Z,100817.48
2023-01-06T01:35:36.871Z,100832.34
2023-01-06T01:40:48.982Z,100849.52
2023-01-06T01:45:55.813Z,100860.78
2023-01-06T01:51:05.736Z,100867.16
2023-01-06T01:56:17.128Z,100886.49
2023-01-06T02:01:23.322Z,100883.35
2023-01-06T02:06:30.422Z,100898.73
2023-01-06T02:11:38.070Z,100910.14
2023-01-06T02:17:01.002Z,100911.20
2023-01-06T02:22:25.815Z,100916.29
2023-01-06T02:27:47.998Z,100935.71
2023-01-06T02:33:06.045Z,100942.67
2023-01-06T02:38:23.614Z,100962.23
2023-01-06T02:43:45.356Z,100964.30
2023-01-06T02:50:29.369Z,100984.54
2023-01-06T02:55:42.566Z,100991.08
2023-01-06T03:00:53.612Z,100997.80
2023-01-06T03:06:04.941Z,101006.98
2023-01-06T03:11:11.609Z,101011.83
2023-01-06T03:16:18.195Z,101014.89
2023-01-06T03:21:26.783Z,101017.34
2023-01-06T03:26:33.290Z,101027.02
2023-01-06T03:31:47.883Z,101033.47
2023-01-06T03:37:03.729Z,101030.61
2023-01-06T03:42:40.814Z,101034.98
2023-01-06T03:47:56.872Z,101045.81
2023-01-06T03:53:16.216Z,101055.05
2023-01-06T03:58:24.608Z,101059.91
2023-01-06T04:03:31.456Z,101065.98
2023-01-06T04:08:37.358Z,101065.49
2023-01-06T04:13:43.489Z,101076.42
2023-01-06T04:18:49.715Z,101083.14
2023-01-06T04:23:56.654Z,101085.14
2023-01-06T04:29:03.488Z,101089.73
2023-01-06T04:34:09.336Z,101090.66
2023-01-06T04:39:15.121Z,101090.14
2023-01-06T04:44:21.028Z,101090.17
2023-01-06T04:49:27.048Z,101097.09
2023-01-06T04:54:32.750Z,101100.57
2023-01-06T04:59:38.393Z,101098.23
2023-01-06T05:04:47.966Z,101091.59
2023-01-06T05:09:54.394Z,101088.80
2023-01-06T05:15:00.186Z,101089.79
2023-01-06T05:20:07.512Z,101088.20
2023-01-06T05:25:13.303Z,101096.17
2023-01-06T05:30:19.556Z,101102.32
2023-01-06T05:35:25.288Z,101117.48
2023-01-06T05:40:31.062Z,101125.62
2023-01-06T05:45:38.528Z,101132.00
2023-01-06T05:50:44.625Z,101135.92
2023-01-06T05:55:50.796Z,101143.00
2023-01-06T06:00:56.930Z,101149.42
2023-01-06T06:06:05.889Z,101152.81
2023-01-06T06:11:14.357Z,101155.53
2023-01-06T06:16:23.438Z,101171.00
2023-01-06T06:21:30.873Z,101186.49
2023-01-06T06:26:37.214Z,101182.95
2023-01-06T06:31:44.239Z,101182.71
2023-01-06T06:36:50.109Z,101190.67
2023-01-06T06:41:56.017Z,101197.43
2023-01-06T06:47:01.834Z,101197.63
2023-01-06T06:52:07.933Z,101209.68
2023-01-06T06:57:13.825Z,101224.36
2023-01-06T07:02:19.912Z,101240.96
2023-01-06T07:07:26.132Z,101241.33
2023-01-06T07:12:31.918Z,101244.34
2023-01-06T07:17:37.986Z,101243.70
2023-01-06T07:22:44.579Z,101247.09
2023-01-06T07:27:55.564Z,101256.69
2023-01-06T07:33:00.252Z,101254.80
2023-01-06T07:38:07.746Z,101252.07
2023-01-06T07:43:13.820Z,101244.95
2023-01-06T07:48:20.843Z,101241.91
2023-01-06T07:53:27.035Z,101243.63
2023-01-06T07:58:33.000Z,101247.42
2023-01-06T08:03:38.989Z,101250.80
2023-01-06T08:08:44.779Z,101263.64
2023-01-06T08:13:50.623Z,101266.02
2023-01-06T08:18:56.616Z,101256.85
2023-01-06T08:24:02.568Z,101252.59
2023-01-06T08:29:08.619Z,101271.48
2023-01-06T08:34:14.662Z,101277.30
2023-01-06T08:39:20.443Z,101274.56
2023-01-06T08:44:27.055Z,101278.73
2023-01-06T08:49:36.046Z,101283.59
2023-01-06T08:54:42.068Z,101286.41
2023-01-06T08:59:48.019Z,101281.98
2023-01-06T09:04:53.987Z,101283.80
2023-01-06T09:09:59.934Z,101280.14
2023-01-06T09:15:06.859Z,101285.15
2023-01-06T09:20:13.103Z,101284.72
2023-01-06T09:25:21.168Z,101280.64
2023-01-06T09:30:26.854Z,101283.45
2023-01-06T09:35:32.581Z,101282.00
2023-01-06T09:40:50.394Z,101275.63
2023-01-06T09:46:06.994Z,101271.42
2023-01-06T09:51:21.223Z,101270.35
2023-01-06T09:56:25.861Z,101272.05
2023-01-06T10:01:41.426Z,101271.66
2023-01-06T10:06:53.827Z,101269.45
2023-01-06T10:12:13.436Z,101263.52
2023-01-06T10:17:36.869Z,101263.41
2023-01-06T10:22:51.021Z,101251.20
2023-01-06T10:28:02.194Z,101246.52
2023-01-06T10:33:14.721Z,101242.45
2023-01-06T10:38:27.362Z,101236.11
2023-01-06T10:43:33.136Z,101227.67
2023-01-06T10:48:40.855Z,101233.88
2023-01-06T10:53:47.054Z,101225.69
2023-01-06T10:58:57.605Z,101225.65
2023-01-06T11:04:15.488Z,101224.91
2023-01-06T11:09:32.594Z,101230.88
2023-01-06T11:14:39.695Z,101222.85
2023-01-06T11:19:46.770Z,101207.54
2023-01-06T11:24:55.431Z,101201.46
2023-01-06T11:30:25.614Z,101200.54
2023-01-06T11:35:34.012Z,101192.43
2023-01-06T11:40:39.648Z,101191.27
2023-01-06T11:45:49.273Z,101187.71
2023-01-06T11:50:57.572Z,101179.54
2023-01-06T11:56:06.256Z,101176.36
2023-01-06T12:01:20.712Z,101170.45
2023-01-06T12:06:32.984Z,101171.52
2023-01-06T12:11:45.560Z,101171.83
2023-01-06T12:17:06.983Z,101166.25
2023-01-06T12:22:22.009Z,101163.95
2023-01-06T12:27:34.240Z,101155.29
2023-01-06T12:32:45.446Z,101155.75
2023-01-06T12:37:52.256Z,101155.17
2023-01-06T12:43:05.094Z,101152.14
2023-01-06T12:48:21.211Z,101151.84
2023-01-06T12:53:31.504Z,101145.34
2023-01-06T12:58:46.909Z,101143.94
2023-01-06T13:04:15.089Z,101145.29
2023-01-06T13:09:40.261Z,101151.54
2023-01-06T13:14:55.668Z,101155.70
2023-01-06T13:20:06.176Z,101154.23
2023-01-06T13:25:29.424Z,101148.96
2023-01-06T13:30:55.956Z,101142.16
2023-01-06T13:36:18.540Z,101132.97
2023-01-06T13:41:26.655Z,101131.34
2023-01-06T13:46:34.761Z,101125.80
2023-01-06T13:51:44.399Z,101119.92
2023-01-06T13:57:24.729Z,101106.91
2023-01-06T14:03:14.335Z,101101.86
2023-01-06T14:08:23.875Z,101094.10
2023-01-06T14:13:38.955Z,101090.58
2023-01-06T14:18:51.288Z,101086.02
2023-01-06T14:24:00.937Z,101078.20
2023-01-06T14:29:38.014Z,101074.37
2023-01-06T14:34:50.377Z,101080.09
2023-01-06T14:39:59.228Z,101087.06
2023-01-06T14:45:17.725Z,101084.48
2023-01-06T14:50:34.797Z,101099.81
2023-01-06T14:55:52.773Z,101110.63
2023-01-06T15:01:00.138Z,101112.77
2023-01-06T15:06:18.415Z,101109.98
2023-01-06T15:11:29.641Z,101100.84
2023-01-06T15:16:38.073Z,101080.30
2023-01-06T15:21:47.031Z,101072.52
2023-01-06T15:26:55.252Z,101067.55
2023-01-06T15:32:02.258Z,101054.37
2023-01-06T15:37:17.528Z,101049.39
2023-01-06T15:42:25.860Z,101040.53
2023-01-06T15:47:35.159Z,101043.21
2023-01-06T15:52:47.686Z,101041.35
2023-01-06T15:57:58.533Z,101035.52
2023-01-06T16:03:06.397Z,101035.48
2023-01-06T16:08:22.850Z,101030.71
2023-01-06T16:13:30.024Z,101030.25
2023-01-06T16:18:37.846Z,101037.45
2023-01-06T16:23:47.623Z,101029.46
2023-01-06T16:28:55.934Z,101026.19
2023-01-06T16:34:25.000Z,101015.02
2023-01-06T16:39:31.038Z,100995.56
2023-01-06T16:44:37.101Z,100984.26
2023-01-06T16:49:42.808Z,100979.69
2023-01-06T16:54:54.126Z,100978.23
2023-01-06T17:00:03.104Z,100971.84
2023-01-06T17:05:20.601Z,100978.71
2023-01-06T17:10:27.018Z,100981.39
2023-01-06T17:15:33.231Z,100973.37
2023-01-06T17:20:38.895Z,100962.02
2023-01-06T17:25:46.063Z,100949.85
2023-01-06T17:30:52.561Z,100943.33
2023-01-06T17:36:00.127Z,100933.91
2023-01-06T17:41:11.458Z,100918.29
2023-01-06T17:46:23.655Z,100915.59
2023-01-06T17:51:29.715Z,100919.83
2023-01-06T17:56:35.616Z,100920.38
2023-01-06T18:01:41.744Z,100915.25
2023-01-06T18:06:52.752Z,100917.30
2023-01-06T18:12:02.968Z,100916.67
2023-01-06T18:17:22.139Z,100907.40
2023-01-06T18:22:29.773Z,100896.39
2023-01-06T18:27:36.965Z,100890.20
2023-01-06T18:32:43.811Z,100886.76
2023-01-06T18:37:52.625Z,100885.08
2023-01-06T18:42:59.310Z,100874.73
2023-01-06T18:48:27.105Z,100851.70
2023-01-06T18:53:38.051Z,100845.80
2023-01-06T18:58:47.469Z,100848.57
2023-01-06T19:04:02.810Z,100842.64
2023-01-06T19:09:27.705Z,100839.05
2023-01-06T19:14:36.370Z,100838.54
2023-01-06T19:19:43.596Z,100836.58
2023-01-06T19:24:57.742Z,100835.64
2023-01-06T19:30:37.583Z,100825.73
2023-01-06T19:35:43.569Z,100816.95
2023-01-06T19:40:49.442Z,100809.71
2023-01-06T19:45:55.709Z,100811.23
2023-01-06T19:51:16.454Z,100810.49
2023-01-06T19:56:24.201Z,100808.02
2023-01-06T20:01:33.427Z,100800.34
2023-01-06T20:06:39.104Z,100790.39
2023-01-06T20:11:45.286Z,100787.33
2023-01-06T20:16:51.380Z,100793.41
2023-01-06T20:21:57.119Z,100782.48
2023-01-06T20:27:02.800Z,100777.35
2023-01-06T20:32:09.384Z,100780.84
2023-01-06T20:37:15.360Z,100781.75
2023-01-06T20:42:21.751Z,100778.73
2023-01-06T20:47:27.758Z,100780.82
2023-01-06T20:52:33.581Z,100787.26
2023-01-06T20:57:39.501Z,100793.13
2023-01-06T21:02:45.462Z,100802.38
2023-01-06T21:07:51.520Z,100806.08
2023-01-06T21:12:58.539Z,100804.27
2023-01-06T21:18:04.426Z,100802.07
2023-01-06T21:23:10.339Z,100802.52
2023-01-06T21:28:16.467Z,100804.42
2023-01-06T21:33:22.435Z,100806.05
2023-01-06T21:38:28.152Z,100806.55
2023-01-06T21:43:33.765Z,100805.36
2023-01-06T21:48:39.634Z,100805.05
2023-01-06T21:53:46.044Z,100790.58
2023-01-06T21:58:51.810Z,100779.95
2023-01-06T22:03:57.516Z,100784.67
2023-01-06T22:09:05.622Z,100788.30
2023-01-06T22:14:13.376Z,100794.96
2023-01-06T22:19:19.822Z,100798.50
2023-01-06T22:24:26.067Z,100798.48
2023-01-06T22:29:32.012Z,100801.52
2023-01-06T22:34:38.082Z,100806.64
2023-01-06T22:39:45.551Z,100814.01
2023-01-06T22:44:51.362Z,100817.48
2023-01-06T22:49:57.852Z,100818.80
2023-01-06T22:55:04.153Z,100817.33
2023-01-06T23:00:15.941Z,100817.83
2023-01-06T23:05:21.755Z,100805.30
2023-01-06T23:10:27.683Z,100809.87
2023-01-06T23:15:33.583Z,100818.30
2023-01-06T23:20:39.252Z,100829.44
2023-01-06T23:25:46.908Z,100833.60
2023-01-06T23:30:52.871Z,100836.38
2023-01-06T23:36:02.533Z,100840.55
2023-01-06T23:41:10.873Z,100841.89
2023-01-06T23:46:19.413Z,100847.38
2023-01-06T23:51:26.317Z,100850.21
2023-01-06T23:56:33.885Z,100854.91
